首页
METAR-TAF:

METAR-TAF

机场 :

金曼, 亞利桑那州, 美国

纬度: 35-15-28N, 经度: 113-55-59W, 海拔: 1050米

当前天气观测

该预报发布于41分钟前的14:51 UTC
风速3节,风向西北
温度 7°C
湿度 76%
气压 1018 hPa
能見度: 16.1公里
少量云层高于3100英尺
阴天层高于4600英尺

METAR: KIGM 211451Z AUTO 31003KT 10SM FEW031 OVC046 07/03 A3007 RMK AO2 RAB1357E29 SLP147 P0002 60002 T00720033 53006 $

时间: 08:32 (15:32 UTC)


TAF: 丢失

超过4000个机场的气象观测和天气预报(METAR&TAF报告)。

可查询的气象台以黄色和红色小点在地图上表示。

将鼠标移到小点上方,可查看气象台名称。

然后点击查看天气观测和预报。

如需切换地图:点击带黑十字的绿色按钮放大地图;点击带横线的绿色按钮缩小地图;或者点击绿色箭头查看邻近地区的地图。


METAR-TAF: